createdAt,value
2023-04-03T00:01:02.007Z,47.80
2023-04-03T00:03:30.123Z,47.80
2023-04-03T00:05:58.024Z,47.70
2023-04-03T00:08:27.214Z,47.80
2023-04-03T00:10:54.924Z,47.70
2023-04-03T00:13:22.753Z,47.80
2023-04-03T00:15:50.741Z,47.80
2023-04-03T00:18:18.787Z,47.50
2023-04-03T00:20:46.555Z,47.80
2023-04-03T00:23:14.317Z,47.80
2023-04-03T00:25:43.462Z,48.50
2023-04-03T00:28:11.725Z,47.90
2023-04-03T00:30:40.039Z,47.80
2023-04-03T00:33:08.076Z,47.80
2023-04-03T00:35:36.763Z,47.70
2023-04-03T00:38:04.948Z,47.70
2023-04-03T00:40:36.337Z,47.70
2023-04-03T00:43:11.022Z,47.60
2023-04-03T00:45:39.701Z,47.80
2023-04-03T00:48:08.691Z,47.80
2023-04-03T00:50:37.880Z,47.80
2023-04-03T00:53:06.574Z,47.80
2023-04-03T00:55:34.646Z,47.90
2023-04-03T00:58:02.810Z,47.80
2023-04-03T01:00:31.942Z,47.90
2023-04-03T01:03:00.210Z,47.70
2023-04-03T01:05:28.362Z,48.40
2023-04-03T01:07:56.405Z,47.80
2023-04-03T01:10:24.536Z,47.80
2023-04-03T01:12:52.774Z,47.80
2023-04-03T01:15:23.921Z,47.70
2023-04-03T01:17:54.251Z,47.70
2023-04-03T01:21:10.700Z,47.70
2023-04-03T01:23:50.514Z,47.80
2023-04-03T01:26:18.793Z,47.90
2023-04-03T01:28:46.684Z,47.90
2023-04-03T01:31:18.168Z,47.90
2023-04-03T01:33:47.573Z,47.80
2023-04-03T01:36:17.386Z,47.90
2023-04-03T01:38:45.380Z,47.80
2023-04-03T01:41:13.492Z,47.80
2023-04-03T01:43:41.639Z,47.80
2023-04-03T01:46:09.906Z,47.90
2023-04-03T01:48:38.252Z,47.90
2023-04-03T01:51:07.956Z,48.00
2023-04-03T01:53:35.978Z,47.90
2023-04-03T01:56:04.267Z,47.90
2023-04-03T01:58:32.188Z,47.70
2023-04-03T02:01:00.887Z,48.00
2023-04-03T02:03:32.365Z,47.90
2023-04-03T02:06:00.523Z,48.00
2023-04-03T02:08:30.402Z,47.70
2023-04-03T02:10:58.760Z,47.90
2023-04-03T02:13:26.577Z,47.90
2023-04-03T02:15:54.440Z,48.00
2023-04-03T02:18:22.389Z,47.90
2023-04-03T02:20:50.363Z,47.80
2023-04-03T02:23:18.364Z,47.90
2023-04-03T02:25:50.124Z,48.00
2023-04-03T02:28:18.293Z,47.90
2023-04-03T02:30:46.418Z,47.90
2023-04-03T02:33:14.889Z,48.10
2023-04-03T02:35:42.889Z,48.10
2023-04-03T02:38:14.276Z,48.00
2023-04-03T02:40:42.612Z,47.80
2023-04-03T02:43:12.663Z,48.00
2023-04-03T02:45:40.689Z,47.90
2023-04-03T02:48:09.175Z,47.90
2023-04-03T02:50:37.531Z,48.10
2023-04-03T02:53:05.920Z,47.90
2023-04-03T02:55:33.978Z,48.00
2023-04-03T02:58:01.977Z,48.00
2023-04-03T03:00:31.610Z,47.80
2023-04-03T03:03:00.056Z,48.00
2023-04-03T03:05:28.712Z,47.90
2023-04-03T03:07:56.815Z,47.90
2023-04-03T03:10:24.980Z,47.90
2023-04-03T03:12:53.011Z,47.80
2023-04-03T03:15:21.066Z,48.00
2023-04-03T03:17:50.430Z,48.00
2023-04-03T03:20:18.318Z,48.00
2023-04-03T03:22:46.281Z,48.00
2023-04-03T03:25:14.200Z,48.00
2023-04-03T03:27:42.443Z,47.90
2023-04-03T03:30:11.340Z,47.90
2023-04-03T03:32:39.503Z,48.10
2023-04-03T03:35:09.638Z,47.90
2023-04-03T03:37:37.591Z,48.00
2023-04-03T03:40:06.358Z,48.00
2023-04-03T03:42:34.410Z,48.00
2023-04-03T03:45:02.411Z,47.90
2023-04-03T03:47:30.904Z,47.90
2023-04-03T03:49:58.881Z,47.80
2023-04-03T03:52:28.315Z,47.90
2023-04-03T03:54:57.116Z,48.00
2023-04-03T03:57:25.377Z,48.00
2023-04-03T03:59:53.818Z,48.00
2023-04-03T04:02:21.943Z,47.70
2023-04-03T04:04:51.022Z,48.00
2023-04-03T04:07:18.980Z,47.90
2023-04-03T04:09:48.380Z,47.90
2023-04-03T04:12:17.019Z,48.00
2023-04-03T04:14:47.649Z,47.80
2023-04-03T04:17:16.070Z,47.80
2023-04-03T04:19:44.069Z,48.00
2023-04-03T04:22:11.845Z,47.90
2023-04-03T04:24:39.972Z,48.00
2023-04-03T04:27:09.218Z,47.90
2023-04-03T04:29:38.178Z,48.00
2023-04-03T04:32:06.199Z,48.10
2023-04-03T04:34:34.005Z,48.00
2023-04-03T04:37:02.262Z,48.00
2023-04-03T04:39:30.169Z,48.10
2023-04-03T04:41:57.919Z,48.00
2023-04-03T04:44:27.301Z,48.10
2023-04-03T04:46:55.495Z,47.90
2023-04-03T04:49:23.516Z,48.10
2023-04-03T04:51:52.392Z,47.80
2023-04-03T04:54:20.792Z,48.20
2023-04-03T04:56:48.855Z,48.10
2023-04-03T04:59:16.883Z,48.00
2023-04-03T05:01:46.387Z,48.00
2023-04-03T05:04:14.707Z,47.90
2023-04-03T05:06:43.066Z,48.00
2023-04-03T05:09:11.335Z,48.00
2023-04-03T05:11:39.349Z,48.00
2023-04-03T05:14:07.630Z,48.20
2023-04-03T05:16:35.924Z,48.10
2023-04-03T05:19:06.002Z,48.00
2023-04-03T05:21:34.095Z,48.00
2023-04-03T05:24:03.712Z,48.10
2023-04-03T05:26:32.045Z,48.00
2023-04-03T05:29:00.113Z,48.10
2023-04-03T05:31:30.860Z,48.00
2023-04-03T05:33:58.968Z,48.00
2023-04-03T05:36:28.974Z,48.00
2023-04-03T05:38:58.578Z,48.10
2023-04-03T05:41:26.813Z,48.20
2023-04-03T05:43:54.751Z,48.10
2023-04-03T05:46:23.131Z,48.20
2023-04-03T05:48:51.671Z,48.20
2023-04-03T05:51:20.171Z,48.20
2023-04-03T05:53:49.662Z,48.20
2023-04-03T05:56:18.064Z,48.40
2023-04-03T05:58:46.386Z,48.40
2023-04-03T06:01:14.444Z,48.40
2023-04-03T06:03:43.187Z,48.30
2023-04-03T06:06:14.886Z,48.50
2023-04-03T06:08:42.803Z,48.40
2023-04-03T06:11:12.160Z,48.60
2023-04-03T06:13:40.767Z,48.50
2023-04-03T06:16:10.627Z,48.60
2023-04-03T06:18:39.366Z,48.70
2023-04-03T06:21:08.779Z,48.70
2023-04-03T06:23:37.110Z,48.80
2023-04-03T06:26:05.262Z,48.80
2023-04-03T06:28:35.018Z,48.80
2023-04-03T06:31:03.222Z,49.00
2023-04-03T06:33:31.642Z,49.00
2023-04-03T06:35:59.960Z,49.20
2023-04-03T06:38:28.137Z,49.20
2023-04-03T06:40:57.080Z,49.50
2023-04-03T06:43:25.490Z,49.50
2023-04-03T06:45:55.865Z,49.50
2023-04-03T06:48:23.904Z,49.40
2023-04-03T06:50:51.861Z,49.90
2023-04-03T06:53:20.039Z,49.70
2023-04-03T06:55:48.985Z,49.90
2023-04-03T06:58:18.773Z,49.90
2023-04-03T07:00:48.729Z,50.00
2023-04-03T07:03:18.553Z,50.00
2023-04-03T07:05:46.828Z,50.20
2023-04-03T07:08:14.898Z,50.20
2023-04-03T07:10:43.288Z,50.30
2023-04-03T07:13:11.379Z,50.40
2023-04-03T07:15:39.646Z,50.60
2023-04-03T07:18:08.800Z,50.60
2023-04-03T07:20:38.329Z,50.70
2023-04-03T07:23:06.778Z,50.70
2023-04-03T07:25:35.507Z,50.80
2023-04-03T07:28:05.220Z,51.00
2023-04-03T07:30:33.149Z,50.90
2023-04-03T07:33:02.347Z,51.30
2023-04-03T07:35:30.728Z,51.20
2023-04-03T07:38:00.246Z,49.50
2023-04-03T07:40:28.358Z,47.30
2023-04-03T07:42:57.932Z,41.90
2023-04-03T07:45:26.293Z,43.00
2023-04-03T07:47:54.768Z,45.00
2023-04-03T07:50:22.825Z,42.20
2023-04-03T07:52:51.861Z,41.60
2023-04-03T07:55:21.389Z,38.00
2023-04-03T07:57:49.357Z,40.30
2023-04-03T08:00:20.695Z,40.60
2023-04-03T08:02:51.821Z,39.60
2023-04-03T08:05:20.090Z,43.40
2023-04-03T08:07:48.893Z,42.90
2023-04-03T08:10:17.599Z,42.00
2023-04-03T08:12:47.831Z,41.40
2023-04-03T08:15:15.897Z,41.00
2023-04-03T08:17:43.937Z,41.00
2023-04-03T08:20:12.938Z,40.90
2023-04-03T08:22:40.871Z,41.20
2023-04-03T08:25:09.541Z,41.20
2023-04-03T08:27:38.024Z,41.60
2023-04-03T08:30:08.973Z,41.70
2023-04-03T08:32:37.171Z,41.90
2023-04-03T08:35:05.343Z,42.10
2023-04-03T08:37:33.350Z,42.20
2023-04-03T08:40:01.484Z,42.50
2023-04-03T08:42:39.802Z,42.60
2023-04-03T08:45:12.188Z,42.60
2023-04-03T08:47:41.199Z,42.80
2023-04-03T08:50:10.878Z,43.10
2023-04-03T08:52:40.591Z,43.10
2023-04-03T08:55:10.062Z,43.20
2023-04-03T08:57:47.137Z,43.40
2023-04-03T09:00:20.993Z,43.20
2023-04-03T09:02:49.650Z,43.40
2023-04-03T09:05:19.284Z,43.60
2023-04-03T09:07:50.048Z,43.60
2023-04-03T09:10:19.404Z,43.60
2023-04-03T09:12:48.607Z,43.70
2023-04-03T09:15:31.232Z,43.70
2023-04-03T09:18:06.763Z,43.70
2023-04-03T09:20:45.366Z,43.80
2023-04-03T09:23:32.545Z,43.70
2023-04-03T09:26:04.769Z,43.90
2023-04-03T09:28:39.166Z,43.90
2023-04-03T09:31:22.483Z,44.00
2023-04-03T09:33:51.851Z,43.80
2023-04-03T09:36:44.343Z,44.00
2023-04-03T09:39:14.700Z,43.90
2023-04-03T09:41:43.692Z,43.80
2023-04-03T09:44:23.192Z,43.90
2023-04-03T09:46:52.620Z,43.70
2023-04-03T09:49:20.909Z,43.60
2023-04-03T09:51:48.814Z,43.60
2023-04-03T09:54:38.454Z,43.40
2023-04-03T09:57:12.927Z,43.20
2023-04-03T09:59:49.844Z,43.00
2023-04-03T10:02:36.373Z,42.70
2023-04-03T10:07:37.400Z,42.50
2023-04-03T10:10:18.545Z,42.40
2023-04-03T10:12:47.119Z,42.30
2023-04-03T10:15:15.900Z,42.10
2023-04-03T10:17:52.979Z,42.00
2023-04-03T10:20:28.618Z,41.80
2023-04-03T10:23:03.154Z,41.50
2023-04-03T10:25:33.066Z,41.40
2023-04-03T10:28:02.432Z,41.30
2023-04-03T10:30:35.367Z,41.10
2023-04-03T10:33:15.772Z,41.00
2023-04-03T10:35:47.440Z,40.70
2023-04-03T10:38:18.064Z,40.50
2023-04-03T10:40:49.857Z,40.30
2023-04-03T10:43:20.054Z,40.20
2023-04-03T10:45:53.699Z,37.10
2023-04-03T10:48:32.378Z,33.80
2023-04-03T10:51:02.573Z,34.20
2023-04-03T10:53:33.568Z,33.20
2023-04-03T10:56:05.040Z,33.40
2023-04-03T10:58:36.559Z,33.30
2023-04-03T11:01:07.885Z,33.60
2023-04-03T11:03:38.909Z,33.60
2023-04-03T11:06:08.215Z,33.60
2023-04-03T11:08:39.143Z,33.70
2023-04-03T11:11:08.439Z,33.80
2023-04-03T11:13:37.951Z,33.90
2023-04-03T11:16:06.512Z,33.70
2023-04-03T11:18:38.557Z,33.70
2023-04-03T11:21:08.448Z,33.50
2023-04-03T11:23:49.079Z,33.40
2023-04-03T11:26:18.823Z,33.40
2023-04-03T11:28:47.361Z,33.30
2023-04-03T11:31:23.004Z,33.40
2023-04-03T11:33:56.837Z,33.40
2023-04-03T11:36:29.510Z,33.30
2023-04-03T11:39:05.027Z,33.30
2023-04-03T11:41:33.692Z,33.30
2023-04-03T11:44:02.787Z,33.20
2023-04-03T11:46:54.957Z,33.10
2023-04-03T11:49:59.617Z,33.00
2023-04-03T11:52:59.236Z,33.00
2023-04-03T11:56:27.703Z,32.90
2023-04-03T11:59:19.331Z,32.80
2023-04-03T12:01:47.910Z,32.80
2023-04-03T12:04:16.773Z,33.00
2023-04-03T12:07:17.239Z,32.80
2023-04-03T12:10:28.703Z,32.80
2023-04-03T12:13:00.161Z,32.90
2023-04-03T12:15:56.221Z,32.80
2023-04-03T12:18:59.275Z,32.70
2023-04-03T12:21:42.151Z,32.90
2023-04-03T12:37:32.794Z,32.70
2023-04-03T12:40:07.048Z,32.40
2023-04-03T12:42:58.401Z,32.20
2023-04-03T12:45:27.793Z,32.20
2023-04-03T12:47:56.827Z,32.00
2023-04-03T12:50:26.364Z,32.10
2023-04-03T12:52:59.829Z,32.20
2023-04-03T12:55:27.593Z,32.10
2023-04-03T12:57:55.406Z,32.00
2023-04-03T13:00:29.535Z,31.90
2023-04-03T13:02:57.480Z,32.00
2023-04-03T13:05:25.837Z,31.70
2023-04-03T13:07:57.272Z,31.60
2023-04-03T13:10:26.475Z,31.90
2023-04-03T13:12:55.225Z,31.70
2023-04-03T13:15:25.736Z,31.70
2023-04-03T13:17:53.754Z,31.60
2023-04-03T13:20:24.571Z,31.60
2023-04-03T13:23:03.434Z,31.40
2023-04-03T13:25:34.546Z,31.60
2023-04-03T13:28:12.548Z,31.50
2023-04-03T13:30:42.372Z,31.10
2023-04-03T13:33:21.665Z,31.60
2023-04-03T13:35:50.012Z,31.80
2023-04-03T13:38:27.956Z,31.70
2023-04-03T13:40:58.573Z,31.40
2023-04-03T13:43:26.967Z,31.50
2023-04-03T13:46:05.878Z,31.30
2023-04-03T13:48:38.634Z,31.00
2023-04-03T13:51:07.150Z,31.10
2023-04-03T13:53:35.666Z,31.20
2023-04-03T13:56:12.086Z,31.50
2023-04-03T13:58:41.103Z,30.00
2023-04-03T14:01:11.048Z,30.00
2023-04-03T14:03:44.003Z,30.60
2023-04-03T14:06:13.061Z,28.90
2023-04-03T14:08:43.480Z,28.30
2023-04-03T14:11:16.806Z,28.70
2023-04-03T14:13:44.973Z,27.90
2023-04-03T14:16:16.289Z,26.60
2023-04-03T14:18:44.708Z,27.40
2023-04-03T14:21:13.521Z,26.40
2023-04-03T14:23:41.919Z,27.50
2023-04-03T14:26:13.172Z,26.10
2023-04-03T14:28:44.102Z,26.30
2023-04-03T14:31:13.813Z,26.70
2023-04-03T14:33:43.039Z,25.90
2023-04-03T14:36:15.104Z,27.10
2023-04-03T14:38:43.796Z,27.20
2023-04-03T14:41:16.659Z,26.40
2023-04-03T14:43:46.909Z,25.60
2023-04-03T14:46:15.791Z,25.00
2023-04-03T14:48:44.150Z,24.80
2023-04-03T14:51:12.471Z,26.00
2023-04-03T14:53:40.480Z,26.90
2023-04-03T14:56:13.293Z,27.80
2023-04-03T14:58:41.505Z,28.70
2023-04-03T15:01:11.999Z,29.50
2023-04-03T15:03:40.195Z,29.50
2023-04-03T15:06:08.157Z,29.30
2023-04-03T15:08:35.897Z,29.00
2023-04-03T15:11:03.569Z,28.80
2023-04-03T15:13:31.353Z,28.60
2023-04-03T15:15:59.426Z,28.30
2023-04-03T15:18:30.950Z,28.10
2023-04-03T15:20:59.129Z,27.50
2023-04-03T15:23:27.504Z,27.40
2023-04-03T15:25:55.910Z,28.10
2023-04-03T15:28:25.826Z,27.70
2023-04-03T15:30:53.804Z,27.40
2023-04-03T15:33:21.678Z,27.50
2023-04-03T15:35:51.170Z,27.90
2023-04-03T15:38:19.095Z,28.10
2023-04-03T15:40:48.014Z,28.70
2023-04-03T15:43:16.726Z,29.20
2023-04-03T15:45:44.645Z,29.60
2023-04-03T15:48:13.546Z,29.90
2023-04-03T15:50:41.531Z,30.40
2023-04-03T15:53:10.980Z,30.80
2023-04-03T15:55:39.737Z,31.20
2023-04-03T15:58:07.731Z,31.50
2023-04-03T16:00:36.014Z,31.80
2023-04-03T16:03:06.436Z,32.10
2023-04-03T16:05:37.104Z,32.30
2023-04-03T16:08:05.289Z,32.50
2023-04-03T16:10:34.308Z,32.70
2023-04-03T16:13:01.965Z,32.90
2023-04-03T16:15:30.025Z,33.10
2023-04-03T16:17:58.065Z,33.20
2023-04-03T16:20:25.998Z,33.40
2023-04-03T16:22:54.102Z,33.60
2023-04-03T16:25:22.273Z,33.70
2023-04-03T16:27:52.027Z,34.00
2023-04-03T16:30:19.895Z,34.10
2023-04-03T16:32:47.660Z,34.20
2023-04-03T16:35:15.473Z,34.30
2023-04-03T16:37:43.183Z,34.30
2023-04-03T16:40:11.543Z,34.60
2023-04-03T16:42:39.322Z,34.60
2023-04-03T16:45:09.761Z,34.70
2023-04-03T16:47:37.481Z,34.80
2023-04-03T16:50:06.190Z,34.80
2023-04-03T16:52:34.596Z,35.20
2023-04-03T16:55:02.270Z,35.10
2023-04-03T16:57:29.961Z,35.10
2023-04-03T17:00:00.005Z,35.30
2023-04-03T17:02:30.514Z,35.40
2023-04-03T17:04:58.404Z,35.60
2023-04-03T17:07:26.715Z,35.80
2023-04-03T17:09:55.170Z,35.90
2023-04-03T17:12:23.391Z,36.00
2023-04-03T17:14:51.496Z,36.00
2023-04-03T17:17:22.328Z,36.00
2023-04-03T17:19:51.414Z,36.10
2023-04-03T17:22:19.438Z,36.10
2023-04-03T17:24:47.164Z,36.10
2023-04-03T17:27:14.877Z,36.40
2023-04-03T17:29:42.562Z,36.20
2023-04-03T17:32:10.292Z,36.10
2023-04-03T17:34:38.061Z,36.30
2023-04-03T17:37:08.371Z,36.30
2023-04-03T17:39:37.576Z,36.30
2023-04-03T17:42:05.344Z,36.30
2023-04-03T17:44:33.040Z,36.30
2023-04-03T17:47:00.826Z,36.30
2023-04-03T17:49:28.577Z,36.30
2023-04-03T17:51:56.423Z,36.50
2023-04-03T17:54:26.002Z,36.30
2023-04-03T17:56:54.304Z,36.60
2023-04-03T17:59:24.602Z,36.80
2023-04-03T18:01:52.648Z,37.20
2023-04-03T18:04:20.856Z,37.30
2023-04-03T18:06:50.023Z,37.40
2023-04-03T18:09:19.346Z,37.50
2023-04-03T18:11:49.041Z,37.80
2023-04-03T18:14:18.604Z,37.80
2023-04-03T18:16:46.836Z,37.90
2023-04-03T18:19:21.770Z,38.10
2023-04-03T18:21:52.238Z,38.10
2023-04-03T18:24:20.578Z,38.20
2023-04-03T18:26:52.201Z,38.30
2023-04-03T18:29:20.186Z,38.40
2023-04-03T18:31:50.793Z,38.50
2023-04-03T18:34:19.248Z,38.40
2023-04-03T18:36:47.668Z,38.50
2023-04-03T18:39:16.006Z,38.60
2023-04-03T18:41:44.143Z,38.60
2023-04-03T18:44:15.221Z,38.70
2023-04-03T18:46:43.491Z,38.80
2023-04-03T18:49:11.532Z,38.90
2023-04-03T18:51:40.532Z,38.90
2023-04-03T18:54:10.038Z,38.90
2023-04-03T18:56:40.654Z,39.00
2023-04-03T18:59:08.708Z,38.90
2023-04-03T19:01:38.283Z,38.80
2023-04-03T19:04:06.309Z,38.80
2023-04-03T19:06:34.294Z,38.80
2023-04-03T19:09:02.422Z,38.70
2023-04-03T19:11:31.490Z,38.80
2023-04-03T19:14:14.459Z,38.80
2023-04-03T19:16:46.005Z,38.80
2023-04-03T19:19:14.129Z,38.80
2023-04-03T19:21:42.266Z,38.60
2023-04-03T19:24:10.839Z,38.70
2023-04-03T19:26:39.030Z,38.80
2023-04-03T19:29:07.082Z,38.80
2023-04-03T19:31:36.822Z,39.00
2023-04-03T19:34:06.439Z,39.00
2023-04-03T19:36:34.858Z,39.30
2023-04-03T19:39:03.324Z,39.40
2023-04-03T19:41:35.199Z,39.60
2023-04-03T19:44:03.302Z,39.60
2023-04-03T19:46:31.408Z,39.80
2023-04-03T19:48:59.607Z,39.90
2023-04-03T19:51:29.113Z,40.00
2023-04-03T19:53:57.072Z,40.20
2023-04-03T19:56:25.100Z,40.20
2023-04-03T19:58:55.035Z,40.50
2023-04-03T20:01:24.315Z,40.50
2023-04-03T20:03:52.436Z,40.60
2023-04-03T20:06:21.604Z,40.80
2023-04-03T20:08:51.075Z,40.90
2023-04-03T20:11:23.954Z,41.10
2023-04-03T20:13:51.915Z,41.10
2023-04-03T20:16:22.587Z,41.20
2023-04-03T20:18:52.492Z,41.30
2023-04-03T20:21:20.818Z,41.40
2023-04-03T20:23:51.514Z,41.50
2023-04-03T20:26:23.720Z,41.60
2023-04-03T20:28:52.347Z,41.60
2023-04-03T20:31:20.712Z,41.80
2023-04-03T20:33:48.836Z,41.70
2023-04-03T20:36:16.850Z,41.90
2023-04-03T20:38:44.878Z,41.80
2023-04-03T20:41:14.489Z,42.00
2023-04-03T20:43:48.355Z,42.00
2023-04-03T20:46:19.680Z,42.00
2023-04-03T20:48:47.711Z,42.10
2023-04-03T20:51:16.520Z,42.10
2023-04-03T20:53:44.410Z,42.20
2023-04-03T20:58:43.673Z,42.30
2023-04-03T21:01:16.151Z,42.30
2023-04-03T21:03:46.052Z,42.40
2023-04-03T21:06:51.705Z,42.50
2023-04-03T21:09:56.842Z,42.40
2023-04-03T21:13:03.018Z,42.50
2023-04-03T21:15:55.066Z,42.40
2023-04-03T21:18:55.064Z,42.70
2023-04-03T21:21:24.429Z,42.60
2023-04-03T21:23:52.713Z,42.70
2023-04-03T21:26:21.536Z,42.60
2023-04-03T21:28:50.652Z,42.70
2023-04-03T21:31:18.359Z,42.60
2023-04-03T21:33:46.476Z,42.70
2023-04-03T21:36:16.303Z,42.70
2023-04-03T21:38:46.788Z,42.60
2023-04-03T21:41:14.598Z,42.70
2023-04-03T21:43:43.110Z,42.60
2023-04-03T21:46:10.827Z,42.70
2023-04-03T21:48:39.734Z,42.70
2023-04-03T21:51:07.581Z,42.80
2023-04-03T21:53:37.116Z,42.70
2023-04-03T21:56:05.319Z,42.70
2023-04-03T21:58:33.180Z,42.60
2023-04-03T22:01:09.595Z,42.70
2023-04-03T22:03:37.715Z,42.60
2023-04-03T22:06:05.992Z,42.80
2023-04-03T22:08:33.682Z,42.80
2023-04-03T22:11:03.685Z,42.90
2023-04-03T22:13:31.572Z,42.80
2023-04-03T22:15:59.808Z,42.90
2023-04-03T22:18:27.538Z,42.70
2023-04-03T22:20:56.050Z,42.80
2023-04-03T22:23:24.042Z,43.00
2023-04-03T22:26:03.361Z,42.90
2023-04-03T22:28:31.351Z,42.80
2023-04-03T22:31:02.223Z,43.00
2023-04-03T22:33:30.199Z,43.00
2023-04-03T22:35:58.153Z,42.90
2023-04-03T22:38:26.676Z,43.00
2023-04-03T22:40:58.735Z,43.00
2023-04-03T22:43:28.750Z,42.70
2023-04-03T22:45:57.147Z,42.90
2023-04-03T22:48:25.124Z,42.90
2023-04-03T22:50:53.037Z,42.90
2023-04-03T22:53:20.928Z,43.00
2023-04-03T22:55:55.863Z,43.00
2023-04-03T22:58:26.922Z,42.90
2023-04-03T23:00:56.568Z,43.00
2023-04-03T23:03:25.384Z,43.00
2023-04-03T23:05:53.824Z,43.10
2023-04-03T23:08:21.648Z,42.90
2023-04-03T23:10:49.411Z,43.00
2023-04-03T23:13:17.219Z,43.00
2023-04-03T23:15:45.018Z,43.00
2023-04-03T23:18:14.465Z,43.10
2023-04-03T23:20:42.431Z,43.10
2023-04-03T23:23:10.709Z,43.00
2023-04-03T23:25:39.023Z,43.00
2023-04-03T23:28:07.014Z,43.00
2023-04-03T23:30:35.013Z,43.00
2023-04-03T23:33:03.035Z,43.20
2023-04-03T23:35:32.359Z,43.20
2023-04-03T23:38:00.309Z,43.10
2023-04-03T23:40:28.824Z,43.10
2023-04-03T23:42:57.117Z,43.10
2023-04-03T23:45:25.157Z,43.30
2023-04-03T23:47:53.118Z,43.10
2023-04-03T23:50:21.114Z,43.10
2023-04-03T23:52:50.426Z,43.00
2023-04-03T23:55:18.137Z,43.20
2023-04-03T23:57:45.825Z,43.20
